sensor_id;sensor_type;location;lat;lon;timestamp;pressure;altitude;pressure_sealevel;temperature
19568;BMP280;9930;49.240;8.548;2023-06-19T00:00:35;99925.75;;;28.49
19568;BMP280;9930;49.240;8.548;2023-06-19T00:03:07;99935.59;;;28.44
19568;BMP280;9930;49.240;8.548;2023-06-19T00:05:33;99914.94;;;28.36
19568;BMP280;9930;49.240;8.548;2023-06-19T00:08:01;99935.03;;;28.37
19568;BMP280;9930;49.240;8.548;2023-06-19T00:10:28;99923.03;;;28.32
19568;BMP280;9930;49.240;8.548;2023-06-19T00:12:54;99925.00;;;28.27
19568;BMP280;9930;49.240;8.548;2023-06-19T00:15:20;99929.44;;;28.25
19568;BMP280;9930;49.240;8.548;2023-06-19T00:17:48;99933.94;;;28.21
19568;BMP280;9930;49.240;8.548;2023-06-19T00:20:16;99923.78;;;28.14
19568;BMP280;9930;49.240;8.548;2023-06-19T00:22:43;99940.28;;;28.16
19568;BMP280;9930;49.240;8.548;2023-06-19T00:25:09;99938.72;;;28.12
19568;BMP280;9930;49.240;8.548;2023-06-19T00:27:37;99941.41;;;28.10
19568;BMP280;9930;49.240;8.548;2023-06-19T00:30:05;99948.47;;;28.08
19568;BMP280;9930;49.240;8.548;2023-06-19T00:32:31;99926.97;;;28.00
19568;BMP280;9930;49.240;8.548;2023-06-19T00:34:58;99944.34;;;28.02
19568;BMP280;9930;49.240;8.548;2023-06-19T00:37:32;99940.09;;;28.00
19568;BMP280;9930;49.240;8.548;2023-06-19T00:39:58;99948.94;;;27.97
19568;BMP280;9930;49.240;8.548;2023-06-19T00:42:28;99941.31;;;27.91
19568;BMP280;9930;49.240;8.548;2023-06-19T00:44:59;99943.28;;;27.86
19568;BMP280;9930;49.240;8.548;2023-06-19T00:47:34;99946.69;;;27.88
19568;BMP280;9930;49.240;8.548;2023-06-19T00:50:05;99955.59;;;27.84
19568;BMP280;9930;49.240;8.548;2023-06-19T00:52:33;99966.63;;;27.92
19568;BMP280;9930;49.240;8.548;2023-06-19T00:54:59;99961.63;;;27.86
19568;BMP280;9930;49.240;8.548;2023-06-19T00:57:29;99973.56;;;27.93
19568;BMP280;9930;49.240;8.548;2023-06-19T00:59:57;99972.91;;;27.88
19568;BMP280;9930;49.240;8.548;2023-06-19T01:02:28;99984.00;;;27.95
19568;BMP280;9930;49.240;8.548;2023-06-19T01:04:58;99979.72;;;27.92
19568;BMP280;9930;49.240;8.548;2023-06-19T01:07:59;99983.19;;;27.93
19568;BMP280;9930;49.240;8.548;2023-06-19T01:10:39;99988.31;;;27.96
19568;BMP280;9930;49.240;8.548;2023-06-19T01:13:21;100001.97;;;28.04
19568;BMP280;9930;49.240;8.548;2023-06-19T01:15:48;100001.25;;;28.00
19568;BMP280;9930;49.240;8.548;2023-06-19T01:18:17;100027.13;;;28.08
19568;BMP280;9930;49.240;8.548;2023-06-19T01:20:45;100030.56;;;28.10
19568;BMP280;9930;49.240;8.548;2023-06-19T01:23:11;100029.69;;;28.10
19568;BMP280;9930;49.240;8.548;2023-06-19T01:25:39;100032.19;;;28.13
19568;BMP280;9930;49.240;8.548;2023-06-19T01:28:09;100014.03;;;28.08
19568;BMP280;9930;49.240;8.548;2023-06-19T01:30:41;100036.47;;;28.15
19568;BMP280;9930;49.240;8.548;2023-06-19T01:33:16;100034.69;;;28.16
19568;BMP280;9930;49.240;8.548;2023-06-19T01:35:46;100033.00;;;28.15
19568;BMP280;9930;49.240;8.548;2023-06-19T01:38:17;100026.03;;;28.14
19568;BMP280;9930;49.240;8.548;2023-06-19T01:40:43;100032.88;;;28.18
19568;BMP280;9930;49.240;8.548;2023-06-19T01:43:10;100037.25;;;28.17
19568;BMP280;9930;49.240;8.548;2023-06-19T01:45:36;100021.78;;;28.11
19568;BMP280;9930;49.240;8.548;2023-06-19T01:48:02;100034.56;;;28.19
19568;BMP280;9930;49.240;8.548;2023-06-19T01:50:31;100030.31;;;28.16
19568;BMP280;9930;49.240;8.548;2023-06-19T01:53:00;100025.25;;;28.12
19568;BMP280;9930;49.240;8.548;2023-06-19T01:55:28;100021.78;;;28.11
19568;BMP280;9930;49.240;8.548;2023-06-19T01:57:54;100025.44;;;28.07
19568;BMP280;9930;49.240;8.548;2023-06-19T02:00:24;100021.97;;;28.06
19568;BMP280;9930;49.240;8.548;2023-06-19T02:02:53;100034.94;;;28.10
19568;BMP280;9930;49.240;8.548;2023-06-19T02:05:21;100022.16;;;28.02
19568;BMP280;9930;49.240;8.548;2023-06-19T02:07:52;100027.31;;;28.03
19568;BMP280;9930;49.240;8.548;2023-06-19T02:10:17;100019.03;;;27.92
19568;BMP280;9930;49.240;8.548;2023-06-19T02:12:43;100036.28;;;27.98
19568;BMP280;9930;49.240;8.548;2023-06-19T02:15:09;100033.72;;;27.96
19568;BMP280;9930;49.240;8.548;2023-06-19T02:17:35;100032.94;;;27.94
19568;BMP280;9930;49.240;8.548;2023-06-19T02:20:04;100036.47;;;27.93
19568;BMP280;9930;49.240;8.548;2023-06-19T02:22:34;100032.22;;;27.91
19568;BMP280;9930;49.240;8.548;2023-06-19T02:25:01;100029.66;;;27.89
19568;BMP280;9930;49.240;8.548;2023-06-19T02:27:34;100021.22;;;27.81
19568;BMP280;9930;49.240;8.548;2023-06-19T02:30:00;100027.28;;;27.83
19568;BMP280;9930;49.240;8.548;2023-06-19T02:32:30;100031.03;;;27.76
19568;BMP280;9930;49.240;8.548;2023-06-19T02:34:58;100018.13;;;27.71
19568;BMP280;9930;49.240;8.548;2023-06-19T02:37:24;100029.28;;;27.77
19568;BMP280;9930;49.240;8.548;2023-06-19T02:39:52;100033.13;;;27.68
19568;BMP280;9930;49.240;8.548;2023-06-19T02:42:20;100086.25;;;27.71
19568;BMP280;9930;49.240;8.548;2023-06-19T02:44:51;100072.41;;;27.68
19568;BMP280;9930;49.240;8.548;2023-06-19T02:47:16;100097.03;;;27.64
19568;BMP280;9930;49.240;8.548;2023-06-19T02:49:42;100080.75;;;27.54
19568;BMP280;9930;49.240;8.548;2023-06-19T02:52:08;100097.34;;;27.55
19568;BMP280;9930;49.240;8.548;2023-06-19T02:54:33;100094.25;;;27.43
19568;BMP280;9930;49.240;8.548;2023-06-19T02:57:00;100105.69;;;27.41
19568;BMP280;9930;49.240;8.548;2023-06-19T02:59:26;100111.97;;;27.37
19568;BMP280;9930;49.240;8.548;2023-06-19T03:01:53;100126.81;;;27.36
19568;BMP280;9930;49.240;8.548;2023-06-19T03:04:19;100118.44;;;27.27
19568;BMP280;9930;49.240;8.548;2023-06-19T03:06:44;100130.75;;;27.25
19568;BMP280;9930;49.240;8.548;2023-06-19T03:09:10;100128.22;;;27.22
19568;BMP280;9930;49.240;8.548;2023-06-19T03:11:41;100120.53;;;27.17
19568;BMP280;9930;49.240;8.548;2023-06-19T03:14:07;100118.25;;;27.08
19568;BMP280;9930;49.240;8.548;2023-06-19T03:16:35;100123.38;;;27.11
19568;BMP280;9930;49.240;8.548;2023-06-19T03:19:03;100106.16;;;27.04
19568;BMP280;9930;49.240;8.548;2023-06-19T03:21:30;100114.13;;;27.01
19568;BMP280;9930;49.240;8.548;2023-06-19T03:24:01;100120.97;;;27.05
19568;BMP280;9930;49.240;8.548;2023-06-19T03:26:29;100118.44;;;27.02
19568;BMP280;9930;49.240;8.548;2023-06-19T03:28:55;100112.41;;;27.00
19568;BMP280;9930;49.240;8.548;2023-06-19T03:31:21;100122.09;;;26.98
19568;BMP280;9930;49.240;8.548;2023-06-19T03:33:49;100126.53;;;26.94
19568;BMP280;9930;49.240;8.548;2023-06-19T03:36:15;100122.16;;;26.95
19568;BMP280;9930;49.240;8.548;2023-06-19T03:38:41;100134.44;;;26.93
19568;BMP280;9930;49.240;8.548;2023-06-19T03:41:09;100130.25;;;26.87
19568;BMP280;9930;49.240;8.548;2023-06-19T03:43:35;100142.41;;;26.90
19568;BMP280;9930;49.240;8.548;2023-06-19T03:46:02;100143.31;;;26.89
19568;BMP280;9930;49.240;8.548;2023-06-19T03:48:28;100133.09;;;26.81
19568;BMP280;9930;49.240;8.548;2023-06-19T03:50:54;100132.25;;;26.81
19568;BMP280;9930;49.240;8.548;2023-06-19T03:53:25;100131.47;;;26.77
19568;BMP280;9930;49.240;8.548;2023-06-19T03:55:53;100135.81;;;26.78
19568;BMP280;9930;49.240;8.548;2023-06-19T03:58:23;100152.25;;;26.82
19568;BMP280;9930;49.240;8.548;2023-06-19T04:00:49;100155.78;;;26.81
19568;BMP280;9930;49.240;8.548;2023-06-19T04:03:22;100157.50;;;26.82
19568;BMP280;9930;49.240;8.548;2023-06-19T04:05:48;100153.16;;;26.81
19568;BMP280;9930;49.240;8.548;2023-06-19T04:08:16;100147.94;;;26.81
19568;BMP280;9930;49.240;8.548;2023-06-19T04:10:44;100147.94;;;26.81
19568;BMP280;9930;49.240;8.548;2023-06-19T04:13:13;100157.56;;;26.80
19568;BMP280;9930;49.240;8.548;2023-06-19T04:15:38;100148.13;;;26.74
19568;BMP280;9930;49.240;8.548;2023-06-19T04:18:09;100145.53;;;26.74
19568;BMP280;9930;49.240;8.548;2023-06-19T04:20:35;100164.59;;;26.78
19568;BMP280;9930;49.240;8.548;2023-06-19T04:23:01;100173.25;;;26.80
19568;BMP280;9930;49.240;8.548;2023-06-19T04:25:27;100178.63;;;26.75
19568;BMP280;9930;49.240;8.548;2023-06-19T04:27:55;100175.06;;;26.78
19568;BMP280;9930;49.240;8.548;2023-06-19T04:30:25;100181.16;;;26.78
19568;BMP280;9930;49.240;8.548;2023-06-19T04:32:50;100182.06;;;26.77
19568;BMP280;9930;49.240;8.548;2023-06-19T04:35:20;100168.28;;;26.72
19568;BMP280;9930;49.240;8.548;2023-06-19T04:37:46;100185.53;;;26.78
19568;BMP280;9930;49.240;8.548;2023-06-19T04:40:14;100171.75;;;26.73
19568;BMP280;9930;49.240;8.548;2023-06-19T04:42:42;100175.91;;;26.78
19568;BMP280;9930;49.240;8.548;2023-06-19T04:45:08;100166.50;;;26.73
19568;BMP280;9930;49.240;8.548;2023-06-19T04:47:35;100171.44;;;26.82
19568;BMP280;9930;49.240;8.548;2023-06-19T04:50:01;100164.50;;;26.81
19568;BMP280;9930;49.240;8.548;2023-06-19T04:52:29;100179.03;;;26.90
19568;BMP280;9930;49.240;8.548;2023-06-19T04:54:54;100175.41;;;26.94
19568;BMP280;9930;49.240;8.548;2023-06-19T04:57:20;100170.97;;;26.97
19568;BMP280;9930;49.240;8.548;2023-06-19T04:59:46;100176.84;;;27.04
19568;BMP280;9930;49.240;8.548;2023-06-19T05:02:13;100183.59;;;27.11
19568;BMP280;9930;49.240;8.548;2023-06-19T05:04:42;100170.97;;;27.22
19568;BMP280;9930;49.240;8.548;2023-06-19T05:07:10;100177.38;;;27.38
19568;BMP280;9930;49.240;8.548;2023-06-19T05:09:42;100181.78;;;27.63
19568;BMP280;9930;49.240;8.548;2023-06-19T05:12:11;100188.19;;;27.79
19568;BMP280;9930;49.240;8.548;2023-06-19T05:14:36;100187.53;;;27.96
19568;BMP280;9930;49.240;8.548;2023-06-19T05:17:02;100182.56;;;28.12
19568;BMP280;9930;49.240;8.548;2023-06-19T05:19:29;100186.34;;;28.28
19568;BMP280;9930;49.240;8.548;2023-06-19T05:21:55;100178.78;;;28.42
19568;BMP280;9930;49.240;8.548;2023-06-19T05:24:21;100200.38;;;28.70
19568;BMP280;9930;49.240;8.548;2023-06-19T05:26:49;100191.84;;;28.87
19568;BMP280;9930;49.240;8.548;2023-06-19T05:29:17;100195.28;;;29.10
19568;BMP280;9930;49.240;8.548;2023-06-19T05:31:42;100184.72;;;29.31
19568;BMP280;9930;49.240;8.548;2023-06-19T05:34:08;100197.41;;;29.62
19568;BMP280;9930;49.240;8.548;2023-06-19T05:36:34;100196.38;;;29.85
19568;BMP280;9930;49.240;8.548;2023-06-19T05:39:02;100200.97;;;30.01
19568;BMP280;9930;49.240;8.548;2023-06-19T05:41:28;100198.97;;;30.06
19568;BMP280;9930;49.240;8.548;2023-06-19T05:43:57;100204.38;;;30.03
19568;BMP280;9930;49.240;8.548;2023-06-19T05:46:25;100210.91;;;30.13
19568;BMP280;9930;49.240;8.548;2023-06-19T05:48:51;100203.38;;;30.24
19568;BMP280;9930;49.240;8.548;2023-06-19T05:51:17;100196.53;;;30.39
19568;BMP280;9930;49.240;8.548;2023-06-19T05:53:45;100203.00;;;30.50
19568;BMP280;9930;49.240;8.548;2023-06-19T05:56:11;100196.50;;;30.57
19568;BMP280;9930;49.240;8.548;2023-06-19T05:58:37;100202.47;;;30.80
19568;BMP280;9930;49.240;8.548;2023-06-19T06:01:02;100192.56;;;30.85
19568;BMP280;9930;49.240;8.548;2023-06-19T06:03:30;100198.91;;;30.98
19568;BMP280;9930;49.240;8.548;2023-06-19T06:06:01;100201.09;;;31.07
19568;BMP280;9930;49.240;8.548;2023-06-19T06:08:30;100190.31;;;31.12
19568;BMP280;9930;49.240;8.548;2023-06-19T06:10:59;100191.03;;;31.15
19568;BMP280;9930;49.240;8.548;2023-06-19T06:13:31;100182.56;;;31.09
19568;BMP280;9930;49.240;8.548;2023-06-19T06:15:58;100200.66;;;31.16
19568;BMP280;9930;49.240;8.548;2023-06-19T06:18:24;100201.44;;;31.18
19568;BMP280;9930;49.240;8.548;2023-06-19T06:20:50;100194.59;;;31.14
19568;BMP280;9930;49.240;8.548;2023-06-19T06:23:15;100196.16;;;31.18
19568;BMP280;9930;49.240;8.548;2023-06-19T06:25:43;100202.78;;;31.25
19568;BMP280;9930;49.240;8.548;2023-06-19T06:28:11;100206.97;;;31.30
19568;BMP280;9930;49.240;8.548;2023-06-19T06:30:40;100205.63;;;31.38
19568;BMP280;9930;49.240;8.548;2023-06-19T06:33:08;100194.16;;;31.39
19568;BMP280;9930;49.240;8.548;2023-06-19T06:35:33;100197.34;;;31.46
19568;BMP280;9930;49.240;8.548;2023-06-19T06:38:02;100199.41;;;31.56
19568;BMP280;9930;49.240;8.548;2023-06-19T06:40:33;100194.97;;;31.57
19568;BMP280;9930;49.240;8.548;2023-06-19T06:43:01;100197.13;;;31.66
19568;BMP280;9930;49.240;8.548;2023-06-19T06:45:31;100212.41;;;31.77
19568;BMP280;9930;49.240;8.548;2023-06-19T06:47:58;100213.38;;;31.92
19568;BMP280;9930;49.240;8.548;2023-06-19T06:50:24;100224.13;;;32.20
19568;BMP280;9930;49.240;8.548;2023-06-19T06:52:49;100225.38;;;32.46
19568;BMP280;9930;49.240;8.548;2023-06-19T06:55:15;100228.22;;;32.73
19568;BMP280;9930;49.240;8.548;2023-06-19T06:57:43;100233.06;;;32.96
19568;BMP280;9930;49.240;8.548;2023-06-19T07:00:10;100235.59;;;33.13
19568;BMP280;9930;49.240;8.548;2023-06-19T07:02:39;100233.59;;;33.33
19568;BMP280;9930;49.240;8.548;2023-06-19T07:05:09;100251.56;;;33.56
19568;BMP280;9930;49.240;8.548;2023-06-19T07:07:35;100253.25;;;33.57
19568;BMP280;9930;49.240;8.548;2023-06-19T07:10:04;100259.28;;;33.45
19568;BMP280;9930;49.240;8.548;2023-06-19T07:12:30;100266.00;;;33.51
19568;BMP280;9930;49.240;8.548;2023-06-19T07:15:01;100266.69;;;33.54
19568;BMP280;9930;49.240;8.548;2023-06-19T07:17:35;100261.59;;;33.65
19568;BMP280;9930;49.240;8.548;2023-06-19T07:20:01;100270.06;;;33.56
19568;BMP280;9930;49.240;8.548;2023-06-19T07:22:30;100271.09;;;33.39
19568;BMP280;9930;49.240;8.548;2023-06-19T07:24:59;100273.44;;;33.14
19568;BMP280;9930;49.240;8.548;2023-06-19T07:27:24;100266.25;;;32.86
19568;BMP280;9930;49.240;8.548;2023-06-19T07:29:53;100248.88;;;32.50
19568;BMP280;9930;49.240;8.548;2023-06-19T07:32:21;100270.34;;;32.44
19568;BMP280;9930;49.240;8.548;2023-06-19T07:34:47;100289.97;;;32.23
19568;BMP280;9930;49.240;8.548;2023-06-19T07:37:12;100284.19;;;31.99
19568;BMP280;9930;49.240;8.548;2023-06-19T07:39:49;100295.97;;;31.76
19568;BMP280;9930;49.240;8.548;2023-06-19T07:42:17;100300.44;;;31.57
19568;BMP280;9930;49.240;8.548;2023-06-19T07:44:46;100284.94;;;31.34
19568;BMP280;9930;49.240;8.548;2023-06-19T07:47:13;100301.22;;;31.24
19568;BMP280;9930;49.240;8.548;2023-06-19T07:49:41;100302.81;;;31.10
19568;BMP280;9930;49.240;8.548;2023-06-19T07:52:07;100307.91;;;30.96
19568;BMP280;9930;49.240;8.548;2023-06-19T07:54:35;100307.78;;;30.80
19568;BMP280;9930;49.240;8.548;2023-06-19T07:57:01;100311.56;;;30.74
19568;BMP280;9930;49.240;8.548;2023-06-19T07:59:31;100307.53;;;30.67
19568;BMP280;9930;49.240;8.548;2023-06-19T08:01:58;100321.81;;;30.62
19568;BMP280;9930;49.240;8.548;2023-06-19T08:04:25;100320.13;;;30.60
19568;BMP280;9930;49.240;8.548;2023-06-19T08:06:51;100311.44;;;30.58
19568;BMP280;9930;49.240;8.548;2023-06-19T08:09:19;100322.59;;;30.64
19568;BMP280;9930;49.240;8.548;2023-06-19T08:11:45;100315.03;;;30.56
19568;BMP280;9930;49.240;8.548;2023-06-19T08:14:12;100313.41;;;30.53
19568;BMP280;9930;49.240;8.548;2023-06-19T08:16:38;100318.72;;;30.52
19568;BMP280;9930;49.240;8.548;2023-06-19T08:19:06;100322.16;;;30.54
19568;BMP280;9930;49.240;8.548;2023-06-19T08:21:34;100320.53;;;30.51
19568;BMP280;9930;49.240;8.548;2023-06-19T08:24:00;100327.56;;;30.51
19568;BMP280;9930;49.240;8.548;2023-06-19T08:26:31;100315.69;;;30.42
19568;BMP280;9930;49.240;8.548;2023-06-19T08:28:59;100325.41;;;30.40
19568;BMP280;9930;49.240;8.548;2023-06-19T08:31:24;100325.63;;;30.36
19568;BMP280;9930;49.240;8.548;2023-06-19T08:33:58;100327.19;;;30.40
19568;BMP280;9930;49.240;8.548;2023-06-19T08:36:25;100330.81;;;30.37
19568;BMP280;9930;49.240;8.548;2023-06-19T08:38:51;100324.00;;;30.33
19568;BMP280;9930;49.240;8.548;2023-06-19T08:41:23;100323.94;;;30.35
19568;BMP280;9930;49.240;8.548;2023-06-19T08:43:49;100334.94;;;30.43
19568;BMP280;9930;49.240;8.548;2023-06-19T08:46:17;100328.41;;;30.51
19568;BMP280;9930;49.240;8.548;2023-06-19T08:48:44;100326.38;;;30.58
19568;BMP280;9930;49.240;8.548;2023-06-19T08:51:15;100335.50;;;30.70
19568;BMP280;9930;49.240;8.548;2023-06-19T08:53:55;100339.88;;;30.88
19568;BMP280;9930;49.240;8.548;2023-06-19T08:56:24;100343.00;;;30.96
19568;BMP280;9930;49.240;8.548;2023-06-19T08:58:49;100337.59;;;30.99
19568;BMP280;9930;49.240;8.548;2023-06-19T09:01:20;100337.38;;;31.04
19568;BMP280;9930;49.240;8.548;2023-06-19T09:03:46;100345.75;;;31.12
19568;BMP280;9930;49.240;8.548;2023-06-19T09:06:15;100332.81;;;31.07
19568;BMP280;9930;49.240;8.548;2023-06-19T09:08:41;100343.34;;;31.07
19568;BMP280;9930;49.240;8.548;2023-06-19T09:11:11;100336.38;;;31.06
19568;BMP280;9930;49.240;8.548;2023-06-19T09:13:36;100351.88;;;31.12
19568;BMP280;9930;49.240;8.548;2023-06-19T09:16:08;100353.59;;;31.13
19568;BMP280;9930;49.240;8.548;2023-06-19T09:18:49;100350.25;;;31.10
19568;BMP280;9930;49.240;8.548;2023-06-19T09:21:23;100343.28;;;31.09
19568;BMP280;9930;49.240;8.548;2023-06-19T09:23:49;100346.91;;;31.06
19568;BMP280;9930;49.240;8.548;2023-06-19T09:26:20;100334.88;;;31.01
19568;BMP280;9930;49.240;8.548;2023-06-19T09:28:46;100342.50;;;31.07
19568;BMP280;9930;49.240;8.548;2023-06-19T09:31:12;100333.44;;;31.12
19568;BMP280;9930;49.240;8.548;2023-06-19T09:33:39;100332.31;;;31.18
19568;BMP280;9930;49.240;8.548;2023-06-19T09:36:06;100329.44;;;31.22
19568;BMP280;9930;49.240;8.548;2023-06-19T09:38:37;100322.84;;;31.31
19568;BMP280;9930;49.240;8.548;2023-06-19T09:41:06;100322.63;;;31.36
19568;BMP280;9930;49.240;8.548;2023-06-19T09:43:43;100324.56;;;31.49
19568;BMP280;9930;49.240;8.548;2023-06-19T09:46:11;100324.88;;;31.61
19568;BMP280;9930;49.240;8.548;2023-06-19T09:48:45;100322.78;;;31.67
19568;BMP280;9930;49.240;8.548;2023-06-19T09:51:20;100313.56;;;31.76
19568;BMP280;9930;49.240;8.548;2023-06-19T09:53:47;100315.50;;;31.89
19568;BMP280;9930;49.240;8.548;2023-06-19T09:56:16;100299.94;;;32.01
19568;BMP280;9930;49.240;8.548;2023-06-19T09:58:45;100300.31;;;32.10
19568;BMP280;9930;49.240;8.548;2023-06-19T10:01:14;100303.09;;;32.25
19568;BMP280;9930;49.240;8.548;2023-06-19T10:03:41;100300.66;;;32.37
19568;BMP280;9930;49.240;8.548;2023-06-19T10:06:15;100303.38;;;32.51
19568;BMP280;9930;49.240;8.548;2023-06-19T10:08:43;100294.00;;;32.62
19568;BMP280;9930;49.240;8.548;2023-06-19T10:11:13;100296.59;;;32.79
19568;BMP280;9930;49.240;8.548;2023-06-19T10:13:45;100301.34;;;32.88
19568;BMP280;9930;49.240;8.548;2023-06-19T10:16:22;100287.22;;;32.89
19568;BMP280;9930;49.240;8.548;2023-06-19T10:18:47;100293.84;;;32.96
19568;BMP280;9930;49.240;8.548;2023-06-19T10:21:20;100287.44;;;33.00
19568;BMP280;9930;49.240;8.548;2023-06-19T10:23:58;100294.84;;;33.09
19568;BMP280;9930;49.240;8.548;2023-06-19T10:26:34;100293.19;;;33.23
19568;BMP280;9930;49.240;8.548;2023-06-19T10:29:17;100277.00;;;33.29
19568;BMP280;9930;49.240;8.548;2023-06-19T10:31:45;100279.28;;;33.35
19568;BMP280;9930;49.240;8.548;2023-06-19T10:34:12;100290.00;;;33.47
19568;BMP280;9930;49.240;8.548;2023-06-19T10:36:40;100287.16;;;33.51
19568;BMP280;9930;49.240;8.548;2023-06-19T10:39:05;100290.28;;;33.57
19568;BMP280;9930;49.240;8.548;2023-06-19T10:41:32;100282.19;;;33.60
19568;BMP280;9930;49.240;8.548;2023-06-19T10:44:07;100267.72;;;33.66
19568;BMP280;9930;49.240;8.548;2023-06-19T10:46:40;100279.97;;;33.83
19568;BMP280;9930;49.240;8.548;2023-06-19T10:49:11;100264.66;;;33.88
19568;BMP280;9930;49.240;8.548;2023-06-19T10:51:41;100253.31;;;33.86
19568;BMP280;9930;49.240;8.548;2023-06-19T10:54:09;100261.81;;;33.91
19568;BMP280;9930;49.240;8.548;2023-06-19T10:56:35;100260.31;;;33.87
19568;BMP280;9930;49.240;8.548;2023-06-19T10:59:10;100256.25;;;33.81
19568;BMP280;9930;49.240;8.548;2023-06-19T11:01:46;100256.59;;;33.75
19568;BMP280;9930;49.240;8.548;2023-06-19T11:04:15;100231.72;;;33.63
19568;BMP280;9930;49.240;8.548;2023-06-19T11:06:44;100230.69;;;33.66
19568;BMP280;9930;49.240;8.548;2023-06-19T11:09:13;100236.09;;;33.78
19568;BMP280;9930;49.240;8.548;2023-06-19T11:11:47;100225.91;;;33.87
19568;BMP280;9930;49.240;8.548;2023-06-19T11:14:15;100235.53;;;34.02
19568;BMP280;9930;49.240;8.548;2023-06-19T11:16:49;100233.34;;;34.08
19568;BMP280;9930;49.240;8.548;2023-06-19T11:19:21;100237.72;;;34.09
19568;BMP280;9930;49.240;8.548;2023-06-19T11:21:52;100228.72;;;34.12
19568;BMP280;9930;49.240;8.548;2023-06-19T11:24:23;100224.00;;;34.17
19568;BMP280;9930;49.240;8.548;2023-06-19T11:26:50;100214.16;;;34.19
19568;BMP280;9930;49.240;8.548;2023-06-19T11:29:25;100212.63;;;34.29
19568;BMP280;9930;49.240;8.548;2023-06-19T11:32:03;100217.56;;;34.35
19568;BMP280;9930;49.240;8.548;2023-06-19T11:34:38;100220.56;;;34.43
19568;BMP280;9930;49.240;8.548;2023-06-19T11:37:14;100220.16;;;34.50
19568;BMP280;9930;49.240;8.548;2023-06-19T11:39:43;100212.47;;;34.59
19568;BMP280;9930;49.240;8.548;2023-06-19T11:42:14;100213.66;;;34.68
19568;BMP280;9930;49.240;8.548;2023-06-19T11:44:56;100204.47;;;34.73
19568;BMP280;9930;49.240;8.548;2023-06-19T11:47:33;100205.31;;;34.74
19568;BMP280;9930;49.240;8.548;2023-06-19T11:50:04;100202.66;;;34.74
19568;BMP280;9930;49.240;8.548;2023-06-19T11:52:31;100199.69;;;34.79
19568;BMP280;9930;49.240;8.548;2023-06-19T11:54:58;100217.47;;;34.91
19568;BMP280;9930;49.240;8.548;2023-06-19T11:57:27;100209.09;;;34.97
19568;BMP280;9930;49.240;8.548;2023-06-19T11:59:55;100191.72;;;34.93
19568;BMP280;9930;49.240;8.548;2023-06-19T12:02:21;100212.09;;;35.05
19568;BMP280;9930;49.240;8.548;2023-06-19T12:04:46;100201.59;;;35.03
19568;BMP280;9930;49.240;8.548;2023-06-19T12:07:15;100202.22;;;35.07
19568;BMP280;9930;49.240;8.548;2023-06-19T12:09:41;100200.44;;;35.08
19568;BMP280;9930;49.240;8.548;2023-06-19T12:12:11;100210.72;;;35.12
19568;BMP280;9930;49.240;8.548;2023-06-19T12:14:39;100197.97;;;35.04
19568;BMP280;9930;49.240;8.548;2023-06-19T12:17:05;100200.75;;;35.03
19568;BMP280;9930;49.240;8.548;2023-06-19T12:19:37;100203.94;;;35.08
19568;BMP280;9930;49.240;8.548;2023-06-19T12:22:04;100206.59;;;35.08
19568;BMP280;9930;49.240;8.548;2023-06-19T12:24:35;100194.59;;;35.02
19568;BMP280;9930;49.240;8.548;2023-06-19T12:27:01;100199.06;;;35.15
19568;BMP280;9930;49.240;8.548;2023-06-19T12:29:31;100194.28;;;35.20
19568;BMP280;9930;49.240;8.548;2023-06-19T12:32:01;100188.56;;;35.26
19568;BMP280;9930;49.240;8.548;2023-06-19T12:34:29;100193.56;;;35.30
19568;BMP280;9930;49.240;8.548;2023-06-19T12:36:57;100180.75;;;35.37
19568;BMP280;9930;49.240;8.548;2023-06-19T12:39:24;100186.69;;;35.53
19568;BMP280;9930;49.240;8.548;2023-06-19T12:41:51;100175.97;;;35.55
19568;BMP280;9930;49.240;8.548;2023-06-19T12:44:17;100174.69;;;35.60
19568;BMP280;9930;49.240;8.548;2023-06-19T12:46:43;100173.00;;;35.59
19568;BMP280;9930;49.240;8.548;2023-06-19T12:49:11;100173.81;;;35.73
19568;BMP280;9930;49.240;8.548;2023-06-19T12:51:42;100169.59;;;35.83
19568;BMP280;9930;49.240;8.548;2023-06-19T12:54:07;100166.06;;;35.95
19568;BMP280;9930;49.240;8.548;2023-06-19T12:56:33;100159.25;;;36.04
19568;BMP280;9930;49.240;8.548;2023-06-19T12:59:04;100154.22;;;36.12
19568;BMP280;9930;49.240;8.548;2023-06-19T13:01:34;100163.22;;;36.22
19568;BMP280;9930;49.240;8.548;2023-06-19T13:04:03;100169.91;;;36.27
19568;BMP280;9930;49.240;8.548;2023-06-19T13:06:29;100163.53;;;36.30
19568;BMP280;9930;49.240;8.548;2023-06-19T13:08:56;100159.47;;;36.24
19568;BMP280;9930;49.240;8.548;2023-06-19T13:11:22;100162.88;;;36.26
19568;BMP280;9930;49.240;8.548;2023-06-19T13:13:47;100160.66;;;36.20
19568;BMP280;9930;49.240;8.548;2023-06-19T13:16:15;100162.06;;;36.13
19568;BMP280;9930;49.240;8.548;2023-06-19T13:18:41;100156.38;;;36.07
19568;BMP280;9930;49.240;8.548;2023-06-19T13:21:10;100148.94;;;35.99
19568;BMP280;9930;49.240;8.548;2023-06-19T13:23:36;100156.81;;;36.00
19568;BMP280;9930;49.240;8.548;2023-06-19T13:26:02;100162.13;;;36.00
19568;BMP280;9930;49.240;8.548;2023-06-19T13:28:29;100152.56;;;35.98
19568;BMP280;9930;49.240;8.548;2023-06-19T13:30:54;100157.53;;;36.03
19568;BMP280;9930;49.240;8.548;2023-06-19T13:33:24;100136.75;;;35.96
19568;BMP280;9930;49.240;8.548;2023-06-19T13:35:53;100152.34;;;36.01
19568;BMP280;9930;49.240;8.548;2023-06-19T13:38:18;100136.00;;;35.94
19568;BMP280;9930;49.240;8.548;2023-06-19T13:40:44;100126.97;;;35.97
19568;BMP280;9930;49.240;8.548;2023-06-19T13:43:10;100127.72;;;35.99
19568;BMP280;9930;49.240;8.548;2023-06-19T13:45:38;100133.66;;;36.03
19568;BMP280;9930;49.240;8.548;2023-06-19T13:48:06;100135.47;;;36.02
19568;BMP280;9930;49.240;8.548;2023-06-19T13:50:32;100134.84;;;35.98
19568;BMP280;9930;49.240;8.548;2023-06-19T13:53:01;100117.75;;;35.90
19568;BMP280;9930;49.240;8.548;2023-06-19T13:55:29;100120.88;;;35.84
19568;BMP280;9930;49.240;8.548;2023-06-19T13:57:55;100114.50;;;35.74
19568;BMP280;9930;49.240;8.548;2023-06-19T14:00:23;100105.72;;;35.60
19568;BMP280;9930;49.240;8.548;2023-06-19T14:02:49;100104.97;;;35.58
19568;BMP280;9930;49.240;8.548;2023-06-19T14:05:15;100100.00;;;35.54
19568;BMP280;9930;49.240;8.548;2023-06-19T14:07:44;100087.28;;;35.46
19568;BMP280;9930;49.240;8.548;2023-06-19T14:10:10;100099.47;;;35.49
19568;BMP280;9930;49.240;8.548;2023-06-19T14:12:36;100098.00;;;35.45
19568;BMP280;9930;49.240;8.548;2023-06-19T14:15:02;100091.22;;;35.41